Time;durP1;ratioP1;P1;durP2;ratioP2;P2;SDS_P1;SDS_P2;PMS_P1;PMS_P2;Temp;Humidity;BMP_temperature;BMP_pressure;BME280_temperature;BME280_humidity;BME280_pressure;Samples;Min_cycle;Max_cycle;Signal;HPM_P1;HPM_P2
2022/01/30 00:00:15;;;;;;;6.03;1.27;;;5.80;99.90;;;6.39;100.00;-19944.28;5059934;28;20312;-74
2022/01/30 00:02:43;;;;;;;6.63;1.33;;;5.80;99.90;;;6.35;100.00;-19943.06;5075880;28;20227;-85
2022/01/30 00:05:12;;;;;;;5.37;1.43;;;5.70;99.90;;;6.47;100.00;-19947.19;5079174;28;20223;-84
2022/01/30 00:07:41;;;;;;;4.70;1.60;;;5.80;99.90;;;6.55;100.00;-19949.91;5075435;28;20244;-76
2022/01/30 00:10:12;;;;;;;6.00;2.30;;;5.90;99.90;;;6.63;100.00;-19952.47;5072813;28;20288;-80
2022/01/30 00:12:46;;;;;;;4.30;1.20;;;5.90;99.90;;;6.68;100.00;-19954.19;5068793;28;20319;-75
2022/01/30 00:15:16;;;;;;;4.23;1.00;;;6.00;99.90;;;6.74;100.00;-19956.41;5071405;28;20231;-71
2022/01/30 00:17:50;;;;;;;6.37;1.23;;;6.10;99.90;;;6.69;100.00;-19954.69;5070796;28;20302;-75
2022/01/30 00:20:21;;;;;;;2.77;0.90;;;6.10;99.90;;;6.59;100.00;-19951.09;5069952;28;20229;-63
2022/01/30 00:22:59;;;;;;;3.33;1.20;;;6.10;99.90;;;6.65;100.00;-19953.16;5065246;28;20887;-63
2022/01/30 00:25:41;;;;;;;2.37;1.30;;;6.10;99.90;;;6.84;100.00;-19959.66;5066760;28;20698;-62
2022/01/30 00:28:12;;;;;;;3.77;1.00;;;6.20;99.90;;;6.81;100.00;-19958.63;5069045;28;20235;-63
2022/01/30 00:30:40;;;;;;;5.67;1.30;;;6.20;99.90;;;6.82;100.00;-19958.97;5068346;28;20305;-63
2022/01/30 00:33:08;;;;;;;4.50;1.30;;;6.20;99.90;;;6.82;100.00;-19958.97;5068269;28;20239;-64
2022/01/30 00:35:37;;;;;;;5.20;1.50;;;6.20;99.90;;;6.74;100.00;-19956.22;5069590;28;20201;-62
2022/01/30 00:38:15;;;;;;;6.37;1.27;;;6.10;99.90;;;6.67;100.00;-19954.00;5069531;28;20618;-63
2022/01/30 00:40:43;;;;;;;7.33;1.50;;;6.10;99.90;;;6.64;100.00;-19952.81;5070129;28;20307;-62
2022/01/30 00:43:12;;;;;;;3.60;1.47;;;6.10;99.90;;;6.72;100.00;-19955.72;5069445;28;20298;-63
2022/01/30 00:45:41;;;;;;;5.03;1.43;;;6.00;99.90;;;6.62;100.00;-19952.13;5070919;28;20253;-63
2022/01/30 00:48:10;;;;;;;6.10;1.43;;;6.00;99.90;;;6.53;100.00;-19949.06;5071116;28;20196;-63
2022/01/30 00:50:39;;;;;;;4.90;1.10;;;5.90;99.90;;;6.43;100.00;-19945.81;5071933;28;20582;-63
2022/01/30 00:53:08;;;;;;;5.23;1.40;;;5.90;99.90;;;6.45;100.00;-19946.50;5070519;28;20228;-63
2022/01/30 00:55:37;;;;;;;2.23;1.23;;;5.80;99.90;;;6.41;100.00;-19944.94;5070207;28;20306;-63
2022/01/30 00:58:05;;;;;;;4.37;1.30;;;5.80;99.90;;;6.34;100.00;-19942.72;5070013;28;20303;-63
2022/01/30 01:00:35;;;;;;;4.50;1.10;;;5.70;99.90;;;6.43;100.00;-19945.63;5070963;28;20650;-64
2022/01/30 01:03:04;;;;;;;5.00;1.10;;;5.80;99.90;;;6.58;100.00;-19950.94;5071064;28;20232;-64
2022/01/30 01:05:34;;;;;;;7.00;1.53;;;5.80;99.90;;;6.82;100.00;-19959.13;5071200;28;20224;-63
2022/01/30 01:08:11;;;;;;;3.53;1.23;;;5.90;99.90;;;6.94;100.00;-19963.06;5061763;28;20271;-63
2022/01/30 01:10:46;;;;;;;5.03;1.30;;;6.00;99.90;;;6.87;100.00;-19960.84;5070883;28;20224;-64
2022/01/30 01:24:14;;;;;;;6.50;1.37;;;6.00;99.90;;;6.68;100.00;-19954.34;5070777;28;20270;-63
2022/01/30 01:26:43;;;;;;;5.50;1.63;;;6.00;99.90;;;6.56;100.00;-19950.25;5070793;28;20247;-63
2022/01/30 01:29:11;;;;;;;5.27;1.63;;;5.90;99.90;;;6.52;100.00;-19948.88;5068819;28;20653;-64
2022/01/30 01:31:39;;;;;;;5.60;1.63;;;5.90;99.90;;;6.73;100.00;-19955.88;5070198;28;20307;-63
2022/01/30 01:34:22;;;;;;;7.40;1.70;;;5.90;99.90;;;6.49;100.00;-19947.69;5070576;28;20575;-63
2022/01/30 01:36:50;;;;;;;7.73;2.00;;;5.90;99.90;;;6.51;100.00;-19948.53;5070316;28;20222;-63
2022/01/30 01:39:18;;;;;;;5.33;1.90;;;5.90;99.90;;;6.55;100.00;-19949.91;5070484;28;20637;-63
2022/01/30 01:41:47;;;;;;;11.10;2.17;;;5.80;99.90;;;6.64;100.00;-19952.81;5069352;28;20907;-63
2022/01/30 01:44:18;;;;;;;8.97;1.90;;;5.90;99.90;;;6.58;100.00;-19950.94;5069096;28;20300;-63
2022/01/30 01:46:47;;;;;;;6.90;1.80;;;5.90;99.90;;;6.47;99.20;-19947.19;5070457;28;20230;-63
2022/01/30 01:49:21;;;;;;;5.27;1.53;;;5.90;99.90;;;6.69;99.63;-19954.53;5070104;28;20823;-63
2022/01/30 01:52:02;;;;;;;7.40;2.17;;;5.90;99.90;;;6.66;100.00;-19953.66;5063267;28;20618;-64
2022/01/30 01:54:30;;;;;;;8.33;1.93;;;5.90;99.90;;;6.86;99.83;-19960.50;5069804;28;20250;-64
2022/01/30 01:57:00;;;;;;;6.37;1.83;;;5.90;99.90;;;6.85;100.00;-19960.16;5069932;28;20204;-64
2022/01/30 01:59:28;;;;;;;7.13;1.93;;;6.00;99.90;;;6.94;97.75;-19963.25;5070043;28;20608;-64
2022/01/30 02:01:59;;;;;;;8.93;2.57;;;6.00;99.90;;;6.89;98.71;-19961.53;5069398;28;20212;-64
2022/01/30 02:04:28;;;;;;;9.27;1.50;;;6.10;99.90;;;6.60;100.00;-19951.63;5069919;28;20714;-64
2022/01/30 02:07:13;;;;;;;6.23;1.73;;;6.00;99.90;;;6.53;99.42;-19949.22;5069708;28;20787;-63
2022/01/30 02:09:42;;;;;;;6.67;1.83;;;5.90;99.90;;;6.38;100.00;-19943.94;5068523;28;20750;-63
2022/01/30 02:12:18;;;;;;;9.00;1.93;;;5.80;99.90;;;6.31;100.00;-19941.53;5069589;28;20216;-63
2022/01/30 02:15:08;;;;;;;5.67;1.50;;;5.60;99.90;;;6.21;100.00;-19938.13;5068530;28;20188;-64
2022/01/30 02:25:59;;;;;;;4.07;1.50;;;5.40;99.90;;;6.03;100.00;-19932.13;5069721;28;20227;-63
2022/01/30 02:28:30;;;;;;;6.70;2.00;;;5.30;99.90;;;5.97;100.00;-19930.09;5068878;28;20233;-63
2022/01/30 02:31:03;;;;;;;5.23;1.77;;;5.30;99.90;;;6.04;100.00;-19932.47;5070022;28;20254;-63
2022/01/30 02:33:31;;;;;;;6.93;2.07;;;5.20;99.90;;;5.92;100.00;-19928.53;5069404;28;20231;-63
2022/01/30 02:35:59;;;;;;;7.17;1.90;;;5.20;99.90;;;6.01;100.00;-19931.63;5050537;28;20201;-62
2022/01/30 02:38:29;;;;;;;6.73;1.30;;;5.20;99.90;;;6.03;100.00;-19932.31;5051386;28;20245;-63
2022/01/30 02:40:58;;;;;;;6.83;1.60;;;5.30;99.90;;;6.26;100.00;-19940.00;5050199;28;20324;-63
2022/01/30 02:43:30;;;;;;;5.50;1.40;;;5.30;99.90;;;6.27;100.00;-19940.34;5053235;28;20228;-63
2022/01/30 02:46:06;;;;;;;5.57;1.67;;;5.40;99.90;;;6.48;100.00;-19947.50;5062130;28;20630;-63
2022/01/30 02:48:47;;;;;;;9.23;1.70;;;5.60;99.90;;;6.52;100.00;-19948.88;5073252;28;20247;-70
2022/01/30 02:51:18;;;;;;;6.33;2.10;;;5.60;99.90;;;6.43;100.00;-19945.63;5061488;28;20228;-71
2022/01/30 02:53:56;;;;;;;6.07;1.40;;;5.70;99.90;;;6.48;100.00;-19947.50;5073561;28;20680;-71
2022/01/30 02:56:24;;;;;;;6.87;1.60;;;5.70;99.90;;;6.63;99.99;-19952.47;5073433;28;20723;-69
2022/01/30 02:58:52;;;;;;;3.53;1.47;;;5.70;99.90;;;6.70;99.19;-19955.03;5073055;28;20220;-71
2022/01/30 03:01:20;;;;;;;6.73;2.30;;;5.80;99.90;;;6.74;99.96;-19956.22;5057781;28;20255;-72
2022/01/30 03:03:48;;;;;;;5.93;1.63;;;5.90;99.90;;;6.72;98.37;-19955.72;5073250;28;20221;-71
2022/01/30 03:06:16;;;;;;;6.87;1.77;;;5.80;99.90;;;6.77;97.64;-19957.44;5073568;28;20189;-69
2022/01/30 03:08:44;;;;;;;5.37;1.30;;;5.90;99.90;;;6.69;97.75;-19954.53;5072925;28;20203;-70
2022/01/30 03:11:14;;;;;;;8.60;1.60;;;5.90;99.90;;;6.55;96.35;-19949.91;5073077;28;20254;-70
2022/01/30 03:13:42;;;;;;;4.93;1.30;;;5.90;99.90;;;6.57;96.84;-19950.41;5072000;28;20707;-69
2022/01/30 03:16:10;;;;;;;3.40;1.37;;;5.80;99.90;;;6.59;96.91;-19951.09;5073298;28;20258;-69
2022/01/30 03:18:40;;;;;;;8.53;1.73;;;5.80;99.90;;;6.34;96.96;-19942.56;5083578;28;20223;-70
2022/01/30 03:21:08;;;;;;;4.93;1.60;;;5.80;99.90;;;6.44;94.58;-19946.16;5083700;28;20618;-70
2022/01/30 03:23:38;;;;;;;5.00;1.80;;;5.80;99.90;;;6.37;97.49;-19943.75;5072988;28;20250;-70
2022/01/30 03:26:08;;;;;;;4.97;1.50;;;5.70;99.90;;;6.36;96.40;-19943.41;5071238;28;20281;-71
2022/01/30 03:28:39;;;;;;;3.40;1.30;;;5.70;99.90;;;6.29;96.96;-19941.03;5071994;28;20315;-70
2022/01/30 03:31:10;;;;;;;7.03;1.60;;;5.60;99.90;;;6.30;96.27;-19941.19;5072844;28;20258;-70
2022/01/30 03:33:38;;;;;;;5.77;1.53;;;5.60;99.90;;;6.25;95.70;-19939.66;5072157;28;20227;-70
2022/01/30 03:36:07;;;;;;;6.20;1.57;;;5.60;99.90;;;6.27;96.50;-19940.16;5071938;28;20235;-70
2022/01/30 03:38:36;;;;;;;7.27;1.60;;;5.50;99.90;;;6.25;95.92;-19939.66;5077226;28;20200;-70
2022/01/30 03:41:05;;;;;;;8.13;1.80;;;5.70;99.90;;;6.18;95.11;-19937.25;5072244;28;20611;-70
2022/01/30 03:43:33;;;;;;;6.63;2.00;;;5.50;99.90;;;6.12;94.86;-19935.38;5071430;28;20303;-71
2022/01/30 03:46:03;;;;;;;6.50;1.90;;;5.50;99.90;;;6.18;93.35;-19937.25;5072414;28;20314;-70
2022/01/30 03:48:31;;;;;;;7.63;2.03;;;5.50;99.90;;;6.25;92.91;-19939.47;5072802;28;20247;-70
2022/01/30 03:50:59;;;;;;;6.97;1.90;;;5.50;99.90;;;6.21;93.65;-19938.13;5073575;28;20295;-70
2022/01/30 03:53:27;;;;;;;5.00;1.90;;;5.50;99.90;;;6.16;91.02;-19936.75;5071361;28;20247;-70
2022/01/30 03:55:55;;;;;;;8.23;1.70;;;5.50;99.90;;;6.23;92.91;-19938.97;5057610;28;20664;-70
2022/01/30 03:58:24;;;;;;;7.20;1.63;;;5.50;99.90;;;6.26;90.98;-19939.81;5052098;28;20366;-70
2022/01/30 04:00:52;;;;;;;4.80;1.87;;;5.50;99.90;;;6.24;90.63;-19939.31;5059091;28;20254;-70
2022/01/30 04:03:21;;;;;;;4.57;1.60;;;5.60;99.90;;;6.24;90.35;-19939.31;5072170;28;20576;-69
2022/01/30 04:05:50;;;;;;;4.67;1.50;;;5.50;99.90;;;6.22;90.09;-19938.78;5072064;28;20628;-69
2022/01/30 04:08:19;;;;;;;8.27;1.47;;;5.50;99.90;;;6.30;89.86;-19941.19;5071149;28;20281;-69
2022/01/30 04:10:47;;;;;;;5.03;1.70;;;5.60;99.90;;;6.27;89.58;-19940.34;5072119;28;20250;-69
2022/01/30 04:13:15;;;;;;;6.43;1.20;;;5.60;99.90;;;6.33;88.24;-19942.22;5071643;28;20231;-69
2022/01/30 04:15:44;;;;;;;7.43;1.70;;;5.60;99.90;;;6.37;88.75;-19943.75;5071388;28;20731;-71
2022/01/30 04:18:13;;;;;;;9.37;1.83;;;5.60;99.90;;;6.43;88.04;-19945.63;5080113;28;20256;-69
2022/01/30 04:20:43;;;;;;;5.87;1.80;;;5.60;99.90;;;6.26;88.88;-19940.00;5072477;28;20221;-70
2022/01/30 04:23:11;;;;;;;7.17;1.90;;;5.60;99.90;;;6.19;89.52;-19937.78;5071911;28;20298;-70
2022/01/30 04:25:39;;;;;;;6.30;1.40;;;5.60;99.90;;;6.35;87.61;-19943.06;5063109;28;20300;-69
2022/01/30 04:28:09;;;;;;;5.27;1.50;;;5.70;99.90;;;6.36;88.80;-19943.41;5051559;28;20256;-70
2022/01/30 04:30:42;;;;;;;5.23;1.77;;;5.70;99.90;;;6.32;89.41;-19942.03;5051530;28;20244;-70
2022/01/30 04:33:11;;;;;;;5.57;1.30;;;5.70;99.90;;;6.28;90.06;-19940.50;5051509;28;20264;-70
2022/01/30 04:35:42;;;;;;;10.00;1.70;;;5.60;99.90;;;6.19;89.54;-19937.78;5051870;28;20240;-69
2022/01/30 04:38:21;;;;;;;6.83;1.77;;;5.60;99.90;;;6.22;90.33;-19938.47;5047870;28;20344;-69
2022/01/30 04:52:24;;;;;;;4.80;1.40;;;5.60;99.90;;;6.36;90.14;-19943.25;5069894;28;20307;-70
2022/01/30 04:58:00;;;;;;;5.23;1.40;;;5.70;99.90;;;6.38;89.05;-19944.09;5068522;28;20762;-64
2022/01/30 05:00:38;;;;;;;7.40;1.83;;;5.70;99.90;;;6.42;89.31;-19945.47;5069162;28;20269;-63
2022/01/30 05:03:25;;;;;;;6.07;1.53;;;5.70;99.90;;;6.44;88.83;-19946.16;5068403;28;20192;-63
2022/01/30 05:06:01;;;;;;;7.57;1.63;;;5.80;99.90;;;6.46;89.02;-19946.66;5067313;28;20184;-62
2022/01/30 05:08:32;;;;;;;6.37;1.60;;;5.80;99.90;;;6.37;90.04;-19943.75;5069944;28;20628;-63
2022/01/30 05:11:02;;;;;;;6.83;1.80;;;5.80;99.90;;;6.40;89.75;-19944.59;5069040;28;20315;-63
2022/01/30 05:13:33;;;;;;;7.23;1.70;;;5.70;99.90;;;6.45;88.66;-19946.50;5068930;28;20262;-64
2022/01/30 05:16:02;;;;;;;8.53;2.20;;;5.80;99.90;;;6.42;88.59;-19945.47;5069039;28;20726;-64
2022/01/30 05:18:31;;;;;;;8.43;2.00;;;5.80;99.90;;;6.49;88.19;-19947.69;5069944;28;20377;-64
2022/01/30 05:20:59;;;;;;;8.47;2.00;;;5.80;99.90;;;6.39;90.01;-19944.28;5070154;28;20291;-63
2022/01/30 05:23:30;;;;;;;7.47;2.17;;;5.70;99.90;;;6.45;90.62;-19946.50;5069078;28;20319;-64
2022/01/30 05:26:05;;;;;;;6.60;1.50;;;5.70;99.90;;;6.38;90.58;-19944.09;5068753;28;20683;-64
2022/01/30 05:28:34;;;;;;;9.43;1.90;;;5.70;99.90;;;6.41;88.44;-19945.13;5052359;28;20662;-63
2022/01/30 05:31:02;;;;;;;6.60;2.27;;;5.70;99.90;;;6.41;90.70;-19944.94;5049214;28;20335;-63
2022/01/30 05:33:31;;;;;;;9.37;2.00;;;5.70;99.90;;;6.41;89.94;-19945.13;5051382;28;20319;-63
2022/01/30 05:36:02;;;;;;;10.57;2.20;;;5.70;99.90;;;6.47;87.86;-19947.00;5069886;28;20207;-64
2022/01/30 05:38:32;;;;;;;7.43;2.20;;;5.80;99.90;;;6.65;87.56;-19953.31;5067330;28;20288;-63
2022/01/30 05:41:01;;;;;;;7.30;2.07;;;5.80;99.90;;;6.65;87.19;-19953.31;5068606;28;20246;-64
2022/01/30 05:43:32;;;;;;;12.53;2.30;;;5.90;99.90;;;6.66;88.31;-19953.50;5066569;28;20248;-63
2022/01/30 05:46:11;;;;;;;9.50;2.20;;;5.90;99.90;;;6.58;88.55;-19950.94;5068011;28;20224;-63
2022/01/30 05:48:40;;;;;;;7.07;2.00;;;5.90;99.90;;;6.47;87.79;-19947.00;5068967;28;20227;-63
2022/01/30 05:51:08;;;;;;;7.70;2.37;;;5.80;99.90;;;6.41;88.27;-19944.94;5069008;28;20221;-63
2022/01/30 05:53:38;;;;;;;6.10;2.67;;;5.80;99.90;;;6.39;87.55;-19944.44;5069031;28;20709;-63
2022/01/30 05:56:09;;;;;;;9.70;2.27;;;5.80;99.90;;;6.44;87.66;-19945.97;5068134;28;20216;-64
2022/01/30 05:58:37;;;;;;;9.10;2.33;;;5.80;99.90;;;6.41;89.67;-19944.94;5068386;28;20226;-63
2022/01/30 06:01:05;;;;;;;10.03;2.23;;;5.70;99.90;;;6.34;88.86;-19942.72;5068622;28;20252;-65
2022/01/30 06:03:34;;;;;;;7.37;2.07;;;5.70;99.90;;;6.40;87.79;-19944.59;5065102;28;20221;-64
2022/01/30 06:06:02;;;;;;;9.23;1.93;;;5.70;99.90;;;6.48;86.06;-19947.50;5068534;28;20681;-70
2022/01/30 06:08:41;;;;;;;6.43;1.70;;;5.70;99.90;;;6.42;87.52;-19945.47;5066889;28;20224;-72
2022/01/30 06:11:12;;;;;;;6.27;1.83;;;5.80;99.90;;;6.35;88.28;-19942.91;5048026;28;20262;-70
2022/01/30 06:13:41;;;;;;;9.80;2.80;;;5.70;99.90;;;6.46;88.60;-19946.81;5048718;28;20641;-70
2022/01/30 06:16:09;;;;;;;5.93;2.30;;;5.80;99.90;;;6.36;87.96;-19943.25;5057807;28;20722;-71
2022/01/30 06:18:37;;;;;;;7.10;2.13;;;5.70;99.90;;;6.38;88.36;-19944.09;5072536;28;20216;-70
2022/01/30 06:21:05;;;;;;;14.40;2.50;;;5.70;99.90;;;6.31;89.04;-19941.53;5072911;28;20346;-71
2022/01/30 06:23:33;;;;;;;9.80;2.40;;;5.70;99.90;;;6.19;90.21;-19937.78;5073016;28;20241;-72
2022/01/30 06:26:01;;;;;;;9.73;2.33;;;5.60;99.90;;;6.26;90.08;-19940.00;5071265;28;20251;-70
2022/01/30 06:28:31;;;;;;;7.37;2.20;;;5.60;99.90;;;6.31;88.47;-19941.53;5071602;28;20224;-70
2022/01/30 06:30:59;;;;;;;5.80;2.23;;;5.60;99.90;;;6.33;88.95;-19942.38;5072930;28;20326;-70
2022/01/30 06:33:27;;;;;;;8.23;2.40;;;5.60;99.90;;;6.40;89.13;-19944.59;5072934;28;20223;-70
2022/01/30 06:35:55;;;;;;;6.23;2.17;;;5.60;99.90;;;6.27;88.30;-19940.16;5074306;28;20315;-70
2022/01/30 06:38:23;;;;;;;11.17;2.40;;;5.60;99.90;;;6.16;89.23;-19936.75;5073297;28;20307;-71
2022/01/30 06:40:51;;;;;;;9.80;2.40;;;5.60;99.90;;;6.27;88.48;-19940.34;5070095;28;20770;-71
2022/01/30 06:43:19;;;;;;;12.93;2.90;;;5.60;99.90;;;6.24;88.80;-19939.16;5071937;28;20240;-70
2022/01/30 06:45:49;;;;;;;10.37;2.67;;;5.60;99.90;;;6.20;88.90;-19937.94;5072072;28;20223;-70
2022/01/30 06:48:18;;;;;;;14.17;2.43;;;5.60;99.90;;;6.22;91.03;-19938.63;5069784;28;20259;-69
2022/01/30 06:50:47;;;;;;;8.83;2.50;;;5.50;99.90;;;6.22;90.88;-19938.78;5073287;28;20295;-70
2022/01/30 06:53:15;;;;;;;8.53;2.03;;;5.50;99.90;;;6.11;90.77;-19934.88;5072575;28;20250;-70
2022/01/30 06:55:43;;;;;;;14.30;2.73;;;5.50;99.90;;;5.99;92.50;-19930.75;5071876;28;20293;-69
2022/01/30 06:58:13;;;;;;;7.90;2.17;;;5.40;99.90;;;6.06;91.94;-19933.16;5063242;28;20296;-69
2022/01/30 07:00:42;;;;;;;9.63;2.57;;;5.40;99.90;;;6.00;93.09;-19931.28;5052175;28;20649;-69
2022/01/30 07:03:12;;;;;;;13.30;2.80;;;5.40;99.90;;;6.08;93.77;-19934.00;5053128;28;20696;-69
2022/01/30 07:05:40;;;;;;;10.17;2.70;;;5.30;99.90;;;6.00;91.98;-19931.28;5072267;28;20244;-70
2022/01/30 07:08:09;;;;;;;9.53;2.70;;;5.30;99.90;;;6.04;92.06;-19932.47;5072021;28;20328;-69
2022/01/30 07:10:38;;;;;;;9.37;2.87;;;5.40;99.90;;;5.99;91.61;-19930.75;5070974;28;20311;-70
2022/01/30 07:13:07;;;;;;;13.90;2.40;;;5.40;99.90;;;6.04;92.22;-19932.47;5070985;28;20223;-70
2022/01/30 07:15:35;;;;;;;10.97;2.93;;;5.40;99.90;;;6.00;93.02;-19931.13;5071418;28;20233;-63
2022/01/30 07:18:04;;;;;;;10.97;2.67;;;5.40;99.90;;;6.05;94.01;-19932.81;5072032;28;20196;-64
2022/01/30 07:20:33;;;;;;;11.50;2.70;;;5.30;99.90;;;6.00;94.09;-19931.13;5069857;28;20227;-63
2022/01/30 07:23:01;;;;;;;9.20;2.60;;;5.30;99.90;;;5.98;94.60;-19930.44;5068414;28;20286;-63
2022/01/30 07:25:29;;;;;;;11.97;3.10;;;5.50;99.90;;;6.11;94.27;-19934.88;5071683;28;20234;-63
2022/01/30 07:27:57;;;;;;;12.57;3.07;;;5.40;99.90;;;6.13;93.86;-19935.56;5067451;28;20298;-63
2022/01/30 07:30:25;;;;;;;10.33;2.83;;;5.40;99.90;;;6.06;95.28;-19933.16;5071707;28;20228;-63
2022/01/30 07:32:54;;;;;;;10.73;2.83;;;5.40;99.90;;;6.11;95.16;-19934.88;5071869;28;20675;-64
2022/01/30 07:35:23;;;;;;;8.33;2.80;;;5.40;99.90;;;6.13;95.11;-19935.72;5070908;28;20676;-63
2022/01/30 07:37:54;;;;;;;12.90;3.20;;;5.40;99.90;;;6.10;96.17;-19934.53;5071436;28;20219;-63
2022/01/30 07:40:23;;;;;;;12.60;2.77;;;5.40;99.90;;;6.06;96.24;-19933.16;5071014;28;20676;-64
2022/01/30 07:42:51;;;;;;;14.30;3.27;;;5.30;99.90;;;5.95;96.66;-19929.41;5070692;28;20258;-64
2022/01/30 07:45:19;;;;;;;12.50;3.00;;;5.30;99.90;;;6.02;96.48;-19931.78;5071327;28;20202;-63
2022/01/30 07:47:47;;;;;;;15.13;3.10;;;5.30;99.90;;;6.11;94.97;-19935.03;5071111;28;20217;-63
2022/01/30 07:50:15;;;;;;;12.33;3.20;;;5.30;99.90;;;6.24;95.47;-19939.16;5068490;28;20599;-63
2022/01/30 07:52:43;;;;;;;11.50;3.10;;;5.40;99.90;;;6.28;94.70;-19940.50;5071222;28;20247;-64
2022/01/30 07:55:13;;;;;;;12.90;3.03;;;5.50;99.90;;;6.33;94.00;-19942.38;5070841;28;20327;-64
2022/01/30 07:57:42;;;;;;;13.03;3.30;;;5.50;99.90;;;6.29;93.60;-19941.03;5071081;28;20275;-64
2022/01/30 08:00:11;;;;;;;20.67;4.20;;;5.50;99.90;;;6.47;92.02;-19947.19;5069119;28;20203;-64
2022/01/30 08:02:41;;;;;;;12.60;2.93;;;5.60;99.90;;;6.55;91.17;-19949.72;5071420;28;20196;-64
2022/01/30 08:05:10;;;;;;;12.20;3.37;;;5.70;99.90;;;6.47;91.75;-19947.19;5071371;28;20224;-64
2022/01/30 08:07:38;;;;;;;12.03;3.17;;;5.70;99.90;;;6.63;90.50;-19952.63;5068927;28;20240;-63
2022/01/30 08:10:07;;;;;;;11.17;3.27;;;5.80;99.90;;;6.67;89.61;-19954.00;5070834;28;20327;-64
2022/01/30 08:12:38;;;;;;;11.60;2.63;;;5.80;99.90;;;6.62;89.01;-19952.13;5069975;28;20249;-64
2022/01/30 08:15:08;;;;;;;9.70;3.03;;;5.80;99.90;;;6.75;89.21;-19956.56;5070163;28;20282;-70
2022/01/30 08:17:37;;;;;;;11.57;3.57;;;5.90;99.90;;;6.57;89.63;-19950.59;5071352;28;20239;-71
2022/01/30 08:20:08;;;;;;;13.00;3.33;;;5.80;99.90;;;6.79;87.81;-19957.94;5070507;28;20277;-71
2022/01/30 08:22:48;;;;;;;11.33;2.80;;;5.90;99.90;;;6.85;87.20;-19960.16;5071764;28;20258;-71
2022/01/30 08:25:18;;;;;;;12.10;3.17;;;5.90;99.90;;;6.92;87.55;-19962.38;5061909;28;20259;-70
2022/01/30 08:27:49;;;;;;;8.30;2.73;;;6.00;99.90;;;6.97;87.71;-19964.25;5046915;28;20225;-70
2022/01/30 08:30:17;;;;;;;12.87;3.03;;;6.10;99.90;;;7.07;86.86;-19967.69;5052019;28;20565;-73
2022/01/30 08:32:48;;;;;;;11.37;3.40;;;6.10;99.90;;;6.90;86.65;-19961.69;5052630;28;20193;-70
2022/01/30 08:35:18;;;;;;;11.90;3.33;;;6.10;99.90;;;6.90;85.78;-19961.88;5051943;28;20244;-71
2022/01/30 08:37:46;;;;;;;11.27;3.20;;;6.10;99.90;;;7.02;86.82;-19965.97;5051654;28;20217;-69
2022/01/30 08:40:19;;;;;;;13.33;3.30;;;6.10;99.90;;;6.98;86.11;-19964.44;5061770;28;20248;-70
2022/01/30 08:42:49;;;;;;;10.03;3.43;;;6.10;99.90;;;7.14;85.63;-19970.06;5067691;28;20696;-70
2022/01/30 08:45:20;;;;;;;12.70;3.70;;;6.20;99.90;;;7.14;86.02;-19970.06;5052471;28;20272;-70
2022/01/30 08:47:51;;;;;;;12.77;3.30;;;6.20;99.90;;;7.02;85.65;-19965.78;5052192;28;20266;-70
2022/01/30 08:50:22;;;;;;;13.13;4.50;;;6.20;99.90;;;7.08;85.44;-19967.84;5070338;28;20213;-70
2022/01/30 08:52:50;;;;;;;20.97;4.00;;;6.20;99.90;;;7.21;84.95;-19972.47;5060873;28;20213;-70
2022/01/30 08:55:20;;;;;;;14.17;3.20;;;6.30;99.90;;;7.19;84.43;-19971.59;5051556;28;20964;-71
2022/01/30 08:57:50;;;;;;;14.77;3.47;;;6.30;99.90;;;7.21;83.82;-19972.47;5057086;28;20308;-73
2022/01/30 09:00:19;;;;;;;12.63;3.63;;;6.30;99.90;;;7.23;82.32;-19972.97;5071583;28;20196;-70
2022/01/30 09:02:48;;;;;;;11.73;3.00;;;6.30;99.90;;;7.13;83.27;-19969.72;5069786;28;20196;-71
2022/01/30 09:05:16;;;;;;;11.00;3.00;;;6.30;99.90;;;7.18;83.41;-19971.44;5052806;28;20857;-70
2022/01/30 09:07:44;;;;;;;12.23;3.00;;;6.30;99.90;;;7.28;83.48;-19974.84;5051222;28;20241;-71
2022/01/30 09:10:13;;;;;;;13.87;3.30;;;6.30;99.90;;;7.16;83.28;-19970.59;5050907;28;20304;-72
2022/01/30 09:12:41;;;;;;;13.30;3.37;;;6.30;99.90;;;6.87;83.66;-19960.84;5060732;28;20216;-69
2022/01/30 09:15:14;;;;;;;11.13;2.90;;;6.20;99.90;;;6.99;83.82;-19964.94;5044209;28;20446;-69
2022/01/30 09:17:42;;;;;;;16.30;3.23;;;6.20;99.90;;;6.98;84.34;-19964.59;5050905;28;20240;-70
2022/01/30 09:20:12;;;;;;;14.63;3.30;;;6.20;99.90;;;7.05;83.82;-19967.00;5050454;28;20225;-70
2022/01/30 09:22:40;;;;;;;11.17;3.20;;;6.20;99.90;;;7.08;84.09;-19968.03;5063670;28;20763;-71
2022/01/30 09:25:10;;;;;;;14.10;3.30;;;6.20;99.90;;;7.00;83.51;-19965.28;5061735;28;20275;-70
2022/01/30 09:27:39;;;;;;;14.93;3.47;;;6.20;99.90;;;7.04;83.88;-19966.66;5052159;28;20631;-70
2022/01/30 09:30:11;;;;;;;11.43;3.27;;;6.30;99.90;;;6.98;83.79;-19964.59;5051171;28;20235;-70
2022/01/30 09:32:40;;;;;;;11.87;3.03;;;6.20;99.90;;;6.89;84.85;-19961.34;5051000;28;20225;-70
2022/01/30 09:35:09;;;;;;;11.67;3.60;;;6.10;99.90;;;7.01;85.97;-19965.63;5050657;28;20248;-70
2022/01/30 09:37:37;;;;;;;13.63;3.27;;;6.10;99.90;;;7.00;83.69;-19965.13;5063415;28;20220;-71
2022/01/30 09:40:08;;;;;;;14.83;4.53;;;6.20;99.90;;;6.94;84.88;-19963.06;5070480;28;20256;-70
2022/01/30 09:42:37;;;;;;;10.70;2.73;;;6.20;99.90;;;7.17;83.22;-19971.09;5069047;28;20292;-70
2022/01/30 09:45:06;;;;;;;18.07;4.07;;;6.30;99.90;;;7.35;82.46;-19977.06;5067404;28;20262;-69
2022/01/30 09:47:37;;;;;;;13.30;3.07;;;6.40;99.90;;;7.49;81.22;-19981.88;5067530;28;20205;-72
2022/01/30 09:50:07;;;;;;;14.30;3.33;;;6.50;99.90;;;7.42;83.10;-19979.63;5064563;28;20718;-71
2022/01/30 09:52:37;;;;;;;13.10;3.27;;;6.50;99.90;;;7.41;83.04;-19979.13;5071009;28;20218;-69
2022/01/30 09:55:09;;;;;;;15.73;3.60;;;6.60;99.90;;;7.35;81.84;-19977.25;5071706;28;20225;-71
2022/01/30 09:57:38;;;;;;;17.80;4.03;;;6.50;99.90;;;7.48;81.72;-19981.53;5071109;28;20286;-70
2022/01/30 10:00:10;;;;;;;15.60;3.67;;;6.50;99.90;;;7.60;80.38;-19985.44;5070504;28;20240;-70
2022/01/30 10:02:42;;;;;;;15.60;3.50;;;6.60;99.90;;;7.51;80.12;-19982.38;5070435;28;20220;-71
2022/01/30 10:05:12;;;;;;;11.60;3.60;;;6.60;99.90;;;7.72;80.48;-19989.56;5068383;28;20297;-71
2022/01/30 10:07:44;;;;;;;13.43;3.27;;;6.70;99.90;;;7.80;80.41;-19992.47;5068491;28;20224;-69
2022/01/30 10:10:18;;;;;;;9.80;3.57;;;6.80;99.90;;;7.68;79.38;-19988.19;5066374;28;20242;-70
2022/01/30 10:13:07;;;;;;;16.00;3.63;;;6.70;99.90;;;7.64;79.17;-19987.00;5069121;28;20223;-69
2022/01/30 10:15:54;;;;;;;12.07;3.20;;;6.70;99.90;;;7.57;79.21;-19984.59;5066591;28;20252;-70
2022/01/30 10:18:26;;;;;;;13.73;3.60;;;6.70;99.90;;;7.74;80.17;-19990.22;5070026;28;20230;-70
2022/01/30 10:20:54;;;;;;;13.30;3.57;;;6.70;99.90;;;7.73;79.79;-19990.06;5070284;28;20217;-70
2022/01/30 10:23:33;;;;;;;12.10;4.10;;;6.70;99.90;;;7.53;79.78;-19983.06;5067302;28;20216;-70
2022/01/30 10:26:07;;;;;;;12.07;3.60;;;6.70;99.90;;;7.79;78.45;-19992.13;5067878;28;20228;-68
2022/01/30 10:28:37;;;;;;;14.77;4.17;;;6.70;99.90;;;7.80;79.63;-19992.47;5069023;28;20230;-69
2022/01/30 10:31:07;;;;;;;17.77;3.70;;;6.80;99.90;;;7.84;79.04;-19993.81;5069730;28;20220;-69
2022/01/30 10:33:45;;;;;;;13.00;3.43;;;6.80;99.90;;;7.63;79.37;-19986.47;5067704;28;20252;-71
2022/01/30 10:36:19;;;;;;;12.63;3.00;;;6.80;99.90;;;7.69;78.67;-19988.53;5067401;28;20195;-71
2022/01/30 10:38:59;;;;;;;15.00;4.27;;;6.80;99.90;;;7.78;75.99;-19991.59;5069453;28;20181;-71
2022/01/30 10:41:37;;;;;;;15.80;3.50;;;6.80;99.90;;;7.78;76.88;-19991.78;5070361;28;20213;-63
2022/01/30 10:44:08;;;;;;;10.97;3.53;;;6.90;99.90;;;7.93;74.56;-19996.91;5066077;28;20311;-64
2022/01/30 10:46:42;;;;;;;22.43;3.93;;;6.90;99.90;;;7.94;75.04;-19997.06;5068694;28;20296;-64
2022/01/30 10:49:14;;;;;;;12.30;3.20;;;7.00;99.90;;;7.96;75.08;-19997.75;5057861;28;20224;-64
2022/01/30 10:51:53;;;;;;;12.50;3.50;;;7.00;99.90;;;8.05;74.73;-20000.84;5069999;28;20217;-65
2022/01/30 10:54:23;;;;;;;13.60;3.83;;;7.00;99.90;;;8.09;75.23;-20002.38;5069946;28;20626;-70
2022/01/30 10:57:02;;;;;;;15.93;3.30;;;7.10;99.90;;;7.97;75.71;-19998.09;5071245;28;20254;-69
2022/01/30 10:59:30;;;;;;;14.70;3.60;;;7.00;99.90;;;8.07;75.17;-20001.50;5070418;28;20228;-66
2022/01/30 11:02:14;;;;;;;14.43;3.97;;;7.00;99.90;;;8.07;75.39;-20001.69;5065468;28;20226;-66
2022/01/30 11:04:47;;;;;;;15.67;3.53;;;7.00;99.90;;;8.03;74.17;-20000.16;5054140;28;20224;-65
2022/01/30 11:07:20;;;;;;;11.77;3.33;;;7.00;99.90;;;8.03;75.97;-20000.31;5063756;28;20321;-66
2022/01/30 11:09:58;;;;;;;16.93;3.83;;;7.00;99.90;;;8.15;75.80;-20004.41;5073679;28;20224;-63